sensor_id;sensor_type;location;lat;lon;timestamp;pressure;altitude;pressure_sealevel;temperature;humidity
75438;BME280;64015;49.392;15.582;2024-01-11T00:00:08;96814.78;;;-10.39;100.00
75438;BME280;64015;49.392;15.582;2024-01-11T00:03:02;96815.91;;;-10.43;100.00
75438;BME280;64015;49.392;15.582;2024-01-11T00:10:38;96793.84;;;-10.67;100.00
75438;BME280;64015;49.392;15.582;2024-01-11T00:13:22;96808.22;;;-10.54;100.00
75438;BME280;64015;49.392;15.582;2024-01-11T00:15:48;96798.28;;;-10.58;100.00
75438;BME280;64015;49.392;15.582;2024-01-11T00:18:34;96805.22;;;-10.60;100.00
75438;BME280;64015;49.392;15.582;2024-01-11T00:24:04;96791.50;;;-10.70;100.00
75438;BME280;64015;49.392;15.582;2024-01-11T00:26:30;96786.88;;;-10.76;100.00
75438;BME280;64015;49.392;15.582;2024-01-11T00:33:00;96780.09;;;-10.88;100.00
75438;BME280;64015;49.392;15.582;2024-01-11T00:38:38;96803.28;;;-10.80;100.00
75438;BME280;64015;49.392;15.582;2024-01-11T00:49:42;96806.03;;;-10.94;100.00
75438;BME280;64015;49.392;15.582;2024-01-11T00:54:59;96801.34;;;-11.00;100.00
75438;BME280;64015;49.392;15.582;2024-01-11T00:57:25;96792.16;;;-11.14;100.00
75438;BME280;64015;49.392;15.582;2024-01-11T00:59:57;96783.91;;;-11.17;100.00
75438;BME280;64015;49.392;15.582;2024-01-11T01:02:22;96773.78;;;-11.30;100.00
75438;BME280;64015;49.392;15.582;2024-01-11T01:11:02;96799.47;;;-11.33;100.00
75438;BME280;64015;49.392;15.582;2024-01-11T01:13:29;96771.13;;;-11.52;100.00
75438;BME280;64015;49.392;15.582;2024-01-11T01:16:27;96795.31;;;-11.47;100.00
75438;BME280;64015;49.392;15.582;2024-01-11T01:19:15;96768.41;;;-11.62;100.00
75438;BME280;64015;49.392;15.582;2024-01-11T01:21:48;96789.53;;;-11.49;100.00
75438;BME280;64015;49.392;15.582;2024-01-11T01:24:14;96785.47;;;-11.51;100.00
75438;BME280;64015;49.392;15.582;2024-01-11T01:33:07;96797.13;;;-11.60;100.00
75438;BME280;64015;49.392;15.582;2024-01-11T01:35:45;96784.78;;;-11.66;100.00
75438;BME280;64015;49.392;15.582;2024-01-11T01:38:33;96777.28;;;-11.67;100.00
75438;BME280;64015;49.392;15.582;2024-01-11T01:40:59;96784.09;;;-11.68;100.00
75438;BME280;64015;49.392;15.582;2024-01-11T01:43:24;96783.78;;;-11.63;100.00
75438;BME280;64015;49.392;15.582;2024-01-11T01:45:57;96772.72;;;-11.75;100.00
75438;BME280;64015;49.392;15.582;2024-01-11T01:48:30;96775.97;;;-11.73;100.00
75438;BME280;64015;49.392;15.582;2024-01-11T01:51:17;96764.81;;;-11.83;100.00
75438;BME280;64015;49.392;15.582;2024-01-11T01:54:02;96767.47;;;-11.85;100.00
75438;BME280;64015;49.392;15.582;2024-01-11T01:59:53;96775.91;;;-11.84;100.00
75438;BME280;64015;49.392;15.582;2024-01-11T02:02:55;96781.72;;;-11.82;100.00
75438;BME280;64015;49.392;15.582;2024-01-11T02:06:05;96751.81;;;-12.04;100.00
75438;BME280;64015;49.392;15.582;2024-01-11T02:08:51;96752.97;;;-12.08;100.00
75438;BME280;64015;49.392;15.582;2024-01-11T02:11:45;96761.59;;;-11.98;100.00
75438;BME280;64015;49.392;15.582;2024-01-11T02:14:11;96758.72;;;-11.93;100.00
75438;BME280;64015;49.392;15.582;2024-01-11T02:16:43;96759.88;;;-11.97;100.00
75438;BME280;64015;49.392;15.582;2024-01-11T02:19:13;96744.44;;;-12.07;100.00
75438;BME280;64015;49.392;15.582;2024-01-11T02:25:48;96740.69;;;-12.14;100.00
75438;BME280;64015;49.392;15.582;2024-01-11T02:28:13;96720.72;;;-12.20;100.00
75438;BME280;64015;49.392;15.582;2024-01-11T02:30:42;96725.53;;;-12.16;100.00
75438;BME280;64015;49.392;15.582;2024-01-11T02:33:10;96737.09;;;-12.12;100.00
75438;BME280;64015;49.392;15.582;2024-01-11T02:35:44;96730.91;;;-12.20;100.00
75438;BME280;64015;49.392;15.582;2024-01-11T02:50:04;96713.03;;;-12.31;100.00
75438;BME280;64015;49.392;15.582;2024-01-11T02:52:44;96717.09;;;-12.29;100.00
75438;BME280;64015;49.392;15.582;2024-01-11T02:59:29;96708.75;;;-12.31;100.00
75438;BME280;64015;49.392;15.582;2024-01-11T03:01:55;96698.59;;;-12.31;100.00
75438;BME280;64015;49.392;15.582;2024-01-11T03:04:27;96714.66;;;-12.30;100.00
75438;BME280;64015;49.392;15.582;2024-01-11T03:07:11;96692.44;;;-12.52;100.00
75438;BME280;64015;49.392;15.582;2024-01-11T03:10:10;96701.44;;;-12.48;100.00
75438;BME280;64015;49.392;15.582;2024-01-11T03:12:42;96721.25;;;-12.40;100.00
75438;BME280;64015;49.392;15.582;2024-01-11T03:15:37;96701.34;;;-12.59;100.00
75438;BME280;64015;49.392;15.582;2024-01-11T03:18:04;96690.59;;;-12.63;100.00
75438;BME280;64015;49.392;15.582;2024-01-11T03:21:03;96686.84;;;-12.70;100.00
75438;BME280;64015;49.392;15.582;2024-01-11T03:38:32;96727.91;;;-12.63;100.00
75438;BME280;64015;49.392;15.582;2024-01-11T03:41:31;96716.00;;;-12.75;100.00
75438;BME280;64015;49.392;15.582;2024-01-11T03:44:00;96713.34;;;-12.74;100.00
75438;BME280;64015;49.392;15.582;2024-01-11T03:46:26;96708.56;;;-12.78;100.00
75438;BME280;64015;49.392;15.582;2024-01-11T03:55:12;96700.03;;;-12.90;100.00
75438;BME280;64015;49.392;15.582;2024-01-11T04:01:46;96711.03;;;-12.90;100.00
75438;BME280;64015;49.392;15.582;2024-01-11T04:04:12;96700.66;;;-12.99;100.00
75438;BME280;64015;49.392;15.582;2024-01-11T04:09:13;96735.72;;;-12.79;100.00
75438;BME280;64015;49.392;15.582;2024-01-11T04:15:36;96720.56;;;-12.80;100.00
75438;BME280;64015;49.392;15.582;2024-01-11T04:18:15;96720.56;;;-12.80;100.00
75438;BME280;64015;49.392;15.582;2024-01-11T04:34:05;96704.19;;;-13.02;100.00
75438;BME280;64015;49.392;15.582;2024-01-11T04:40:47;96694.34;;;-13.19;100.00
75438;BME280;64015;49.392;15.582;2024-01-11T04:43:13;96695.53;;;-13.25;100.00
75438;BME280;64015;49.392;15.582;2024-01-11T05:04:17;96694.72;;;-13.12;100.00
75438;BME280;64015;49.392;15.582;2024-01-11T05:11:21;96710.06;;;-13.27;100.00
75438;BME280;64015;49.392;15.582;2024-01-11T05:14:04;96705.81;;;-13.26;100.00
75438;BME280;64015;49.392;15.582;2024-01-11T05:24:42;96713.06;;;-13.34;100.00
75438;BME280;64015;49.392;15.582;2024-01-11T05:31:37;96713.72;;;-13.31;100.00
75438;BME280;64015;49.392;15.582;2024-01-11T05:50:43;96711.00;;;-13.54;100.00
75438;BME280;64015;49.392;15.582;2024-01-11T05:53:48;96718.81;;;-13.57;100.00
75438;BME280;64015;49.392;15.582;2024-01-11T05:56:46;96737.19;;;-13.54;100.00
75438;BME280;64015;49.392;15.582;2024-01-11T06:02:21;96734.53;;;-13.52;100.00
75438;BME280;64015;49.392;15.582;2024-01-11T06:04:56;96723.25;;;-13.61;100.00
75438;BME280;64015;49.392;15.582;2024-01-11T06:07:27;96720.63;;;-13.60;100.00
75438;BME280;64015;49.392;15.582;2024-01-11T06:10:27;96709.41;;;-13.70;100.00
75438;BME280;64015;49.392;15.582;2024-01-11T06:13:16;96710.28;;;-13.56;100.00
75438;BME280;64015;49.392;15.582;2024-01-11T06:15:42;96731.63;;;-13.46;100.00
75438;BME280;64015;49.392;15.582;2024-01-11T06:18:08;96705.16;;;-13.69;100.00
75438;BME280;64015;49.392;15.582;2024-01-11T06:20:50;96719.47;;;-13.68;100.00
75438;BME280;64015;49.392;15.582;2024-01-11T06:23:45;96737.38;;;-13.57;100.00
75438;BME280;64015;49.392;15.582;2024-01-11T06:26:32;96717.75;;;-13.68;100.00
75438;BME280;64015;49.392;15.582;2024-01-11T06:29:23;96706.56;;;-13.78;100.00
75438;BME280;64015;49.392;15.582;2024-01-11T06:32:18;96720.38;;;-13.69;100.00
75438;BME280;64015;49.392;15.582;2024-01-11T06:34:47;96733.22;;;-13.58;100.00
75438;BME280;64015;49.392;15.582;2024-01-11T06:37:58;96723.22;;;-13.74;100.00
75438;BME280;64015;49.392;15.582;2024-01-11T06:46:40;96737.88;;;-13.65;100.00
75438;BME280;64015;49.392;15.582;2024-01-11T06:49:42;96778.22;;;-13.47;100.00
75438;BME280;64015;49.392;15.582;2024-01-11T06:52:08;96749.63;;;-13.64;100.00
75438;BME280;64015;49.392;15.582;2024-01-11T06:55:37;96757.03;;;-13.61;100.00
75438;BME280;64015;49.392;15.582;2024-01-11T07:02:22;96746.38;;;-13.66;100.00
75438;BME280;64015;49.392;15.582;2024-01-11T07:05:12;96759.00;;;-13.51;100.00
75438;BME280;64015;49.392;15.582;2024-01-11T07:23:11;96769.16;;;-13.12;100.00
75438;BME280;64015;49.392;15.582;2024-01-11T07:25:37;96740.75;;;-13.17;100.00
75438;BME280;64015;49.392;15.582;2024-01-11T07:31:30;96742.09;;;-12.99;100.00
75438;BME280;64015;49.392;15.582;2024-01-11T07:34:39;96753.81;;;-12.71;100.00
75438;BME280;64015;49.392;15.582;2024-01-11T07:37:34;96743.75;;;-12.72;100.00
75438;BME280;64015;49.392;15.582;2024-01-11T07:41:02;96742.22;;;-12.50;100.00
75438;BME280;64015;49.392;15.582;2024-01-11T07:44:26;96721.19;;;-12.52;100.00
75438;BME280;64015;49.392;15.582;2024-01-11T07:47:01;96712.25;;;-12.44;100.00
75438;BME280;64015;49.392;15.582;2024-01-11T07:49:42;96710.81;;;-12.36;100.00
75438;BME280;64015;49.392;15.582;2024-01-11T07:52:08;96704.91;;;-12.24;100.00
75438;BME280;64015;49.392;15.582;2024-01-11T07:55:31;96699.22;;;-12.03;100.00
75438;BME280;64015;49.392;15.582;2024-01-11T07:58:05;96655.00;;;-12.14;100.00
75438;BME280;64015;49.392;15.582;2024-01-11T08:00:36;96671.13;;;-11.89;100.00
75438;BME280;64015;49.392;15.582;2024-01-11T08:03:18;96650.06;;;-11.91;100.00
75438;BME280;64015;49.392;15.582;2024-01-11T08:05:46;96663.81;;;-11.70;100.00
75438;BME280;64015;49.392;15.582;2024-01-11T08:21:42;96621.44;;;-10.79;100.00
75438;BME280;64015;49.392;15.582;2024-01-11T08:27:52;96644.72;;;-10.28;100.00
75438;BME280;64015;49.392;15.582;2024-01-11T08:30:39;96678.88;;;-9.97;100.00
75438;BME280;64015;49.392;15.582;2024-01-11T08:37:36;96627.13;;;-9.99;100.00
75438;BME280;64015;49.392;15.582;2024-01-11T08:40:10;96623.44;;;-9.95;100.00
75438;BME280;64015;49.392;15.582;2024-01-11T08:42:49;96631.59;;;-9.69;100.00
75438;BME280;64015;49.392;15.582;2024-01-11T08:45:23;96637.00;;;-9.62;100.00
75438;BME280;64015;49.392;15.582;2024-01-11T08:48:00;96637.59;;;-9.59;100.00
75438;BME280;64015;49.392;15.582;2024-01-11T08:51:15;96655.75;;;-9.41;100.00
75438;BME280;64015;49.392;15.582;2024-01-11T08:58:37;96650.22;;;-9.05;100.00
75438;BME280;64015;49.392;15.582;2024-01-11T09:04:19;96650.56;;;-8.68;100.00
75438;BME280;64015;49.392;15.582;2024-01-11T09:06:53;96668.63;;;-8.39;100.00
75438;BME280;64015;49.392;15.582;2024-01-11T09:10:32;96633.91;;;-8.32;100.00
75438;BME280;64015;49.392;15.582;2024-01-11T09:13:13;96671.59;;;-7.84;100.00
75438;BME280;64015;49.392;15.582;2024-01-11T09:15:44;96662.59;;;-7.69;100.00
75438;BME280;64015;49.392;15.582;2024-01-11T09:18:10;96651.03;;;-7.15;100.00
75438;BME280;64015;49.392;15.582;2024-01-11T09:21:19;96669.44;;;-6.54;98.99
75438;BME280;64015;49.392;15.582;2024-01-11T09:24:06;96625.16;;;-6.01;94.92
75438;BME280;64015;49.392;15.582;2024-01-11T09:26:32;96638.44;;;-5.43;90.51
75438;BME280;64015;49.392;15.582;2024-01-11T09:29:35;96630.56;;;-5.06;85.23
75438;BME280;64015;49.392;15.582;2024-01-11T09:32:35;96603.53;;;-4.58;82.32
75438;BME280;64015;49.392;15.582;2024-01-11T09:35:04;96612.91;;;-3.65;79.25
75438;BME280;64015;49.392;15.582;2024-01-11T09:37:33;96580.56;;;-3.35;76.40
75438;BME280;64015;49.392;15.582;2024-01-11T09:39:59;96574.41;;;-2.69;74.38
75438;BME280;64015;49.392;15.582;2024-01-11T09:43:20;96618.41;;;-1.60;70.21
75438;BME280;64015;49.392;15.582;2024-01-11T09:46:16;96631.06;;;-0.97;67.04
75438;BME280;64015;49.392;15.582;2024-01-11T09:49:12;96628.97;;;0.03;63.23
75438;BME280;64015;49.392;15.582;2024-01-11T09:51:57;96621.28;;;0.60;60.59
75438;BME280;64015;49.392;15.582;2024-01-11T09:54:28;96604.44;;;0.56;59.84
75438;BME280;64015;49.392;15.582;2024-01-11T09:57:01;96615.84;;;0.77;59.00
75438;BME280;64015;49.392;15.582;2024-01-11T09:59:59;96608.31;;;1.31;57.22
75438;BME280;64015;49.392;15.582;2024-01-11T10:02:35;96600.81;;;1.42;56.09
75438;BME280;64015;49.392;15.582;2024-01-11T10:05:05;96577.28;;;0.73;58.11
75438;BME280;64015;49.392;15.582;2024-01-11T10:07:32;96588.72;;;0.07;59.26
75438;BME280;64015;49.392;15.582;2024-01-11T10:10:08;96582.97;;;0.26;60.18
75438;BME280;64015;49.392;15.582;2024-01-11T10:12:48;96602.84;;;1.19;57.85
75438;BME280;64015;49.392;15.582;2024-01-11T10:15:15;96588.00;;;2.03;55.33
75438;BME280;64015;49.392;15.582;2024-01-11T10:18:01;96582.41;;;2.80;53.23
75438;BME280;64015;49.392;15.582;2024-01-11T10:21:20;96594.66;;;3.79;50.86
75438;BME280;64015;49.392;15.582;2024-01-11T10:56:19;96543.38;;;7.75;38.17
75438;BME280;64015;49.392;15.582;2024-01-11T11:07:05;96573.59;;;7.43;39.56
75438;BME280;64015;49.392;15.582;2024-01-11T11:16:46;96545.81;;;5.74;42.83
75438;BME280;64015;49.392;15.582;2024-01-11T11:34:05;96540.19;;;6.73;41.83
75438;BME280;64015;49.392;15.582;2024-01-11T11:47:39;96552.69;;;3.73;45.99
75438;BME280;64015;49.392;15.582;2024-01-11T11:56:56;96522.25;;;1.88;49.70
75438;BME280;64015;49.392;15.582;2024-01-11T12:02:16;96503.13;;;1.20;50.71
75438;BME280;64015;49.392;15.582;2024-01-11T12:05:42;96509.91;;;0.93;51.61
75438;BME280;64015;49.392;15.582;2024-01-11T12:08:41;96470.56;;;0.68;52.60
75438;BME280;64015;49.392;15.582;2024-01-11T12:13:50;96482.41;;;0.78;52.29
75438;BME280;64015;49.392;15.582;2024-01-11T12:20:31;96475.16;;;0.94;52.47
75438;BME280;64015;49.392;15.582;2024-01-11T12:29:03;96491.72;;;1.21;52.18
75438;BME280;64015;49.392;15.582;2024-01-11T12:31:30;96467.53;;;0.93;51.92
75438;BME280;64015;49.392;15.582;2024-01-11T12:40:21;96451.25;;;0.50;53.27
75438;BME280;64015;49.392;15.582;2024-01-11T12:50:30;96449.09;;;0.32;54.52
75438;BME280;64015;49.392;15.582;2024-01-11T12:57:25;96450.38;;;0.64;54.72
75438;BME280;64015;49.392;15.582;2024-01-11T13:00:11;96435.94;;;0.83;54.09
75438;BME280;64015;49.392;15.582;2024-01-11T13:10:10;96443.69;;;1.52;51.94
75438;BME280;64015;49.392;15.582;2024-01-11T13:12:48;96443.88;;;1.43;52.20
75438;BME280;64015;49.392;15.582;2024-01-11T13:15:51;96450.59;;;1.79;50.46
75438;BME280;64015;49.392;15.582;2024-01-11T13:21:58;96438.47;;;1.38;50.09
75438;BME280;64015;49.392;15.582;2024-01-11T13:24:27;96446.78;;;1.27;51.19
75438;BME280;64015;49.392;15.582;2024-01-11T13:27:28;96445.75;;;1.63;50.96
75438;BME280;64015;49.392;15.582;2024-01-11T13:33:46;96429.94;;;1.17;51.40
75438;BME280;64015;49.392;15.582;2024-01-11T13:40:27;96418.78;;;0.88;51.22
75438;BME280;64015;49.392;15.582;2024-01-11T14:38:21;96437.13;;;-0.62;56.11
75438;BME280;64015;49.392;15.582;2024-01-11T14:47:35;96429.09;;;-0.97;59.19
75438;BME280;64015;49.392;15.582;2024-01-11T14:53:16;96416.59;;;-1.23;59.32
75438;BME280;64015;49.392;15.582;2024-01-11T14:56:23;96425.53;;;-1.25;59.41
75438;BME280;64015;49.392;15.582;2024-01-11T15:03:32;96420.13;;;-1.38;60.35
75438;BME280;64015;49.392;15.582;2024-01-11T15:09:57;96423.59;;;-1.61;60.71
75438;BME280;64015;49.392;15.582;2024-01-11T15:21:10;96424.06;;;-2.03;63.94
75438;BME280;64015;49.392;15.582;2024-01-11T15:24:12;96412.13;;;-2.27;65.44
75438;BME280;64015;49.392;15.582;2024-01-11T15:55:40;96434.38;;;-1.95;64.44
75438;BME280;64015;49.392;15.582;2024-01-11T15:58:28;96419.03;;;-1.96;64.51
75438;BME280;64015;49.392;15.582;2024-01-11T16:06:32;96423.09;;;-1.79;63.21
75438;BME280;64015;49.392;15.582;2024-01-11T16:08:59;96421.19;;;-1.85;62.75
75438;BME280;64015;49.392;15.582;2024-01-11T16:19:05;96408.09;;;-1.83;63.73
75438;BME280;64015;49.392;15.582;2024-01-11T16:33:12;96398.72;;;-1.84;63.31
75438;BME280;64015;49.392;15.582;2024-01-11T16:36:22;96392.88;;;-2.01;63.30
75438;BME280;64015;49.392;15.582;2024-01-11T16:39:21;96410.69;;;-2.06;64.09
75438;BME280;64015;49.392;15.582;2024-01-11T17:10:29;96404.63;;;-2.75;67.12
75438;BME280;64015;49.392;15.582;2024-01-11T17:13:02;96403.66;;;-2.74;66.51
75438;BME280;64015;49.392;15.582;2024-01-11T17:15:28;96420.72;;;-2.65;66.67
75438;BME280;64015;49.392;15.582;2024-01-11T17:18:10;96412.69;;;-2.70;66.73
75438;BME280;64015;49.392;15.582;2024-01-11T17:21:13;96404.31;;;-2.72;66.12
75438;BME280;64015;49.392;15.582;2024-01-11T17:23:41;96422.28;;;-2.56;65.99
75438;BME280;64015;49.392;15.582;2024-01-11T18:16:04;96428.03;;;-2.77;69.14
75438;BME280;64015;49.392;15.582;2024-01-11T18:18:39;96412.44;;;-2.91;69.25
75438;BME280;64015;49.392;15.582;2024-01-11T18:21:28;96403.59;;;-2.89;69.11
75438;BME280;64015;49.392;15.582;2024-01-11T18:24:17;96422.94;;;-2.93;70.03
75438;BME280;64015;49.392;15.582;2024-01-11T18:27:08;96439.75;;;-2.97;70.97
75438;BME280;64015;49.392;15.582;2024-01-11T18:36:31;96418.34;;;-3.22;72.64
75438;BME280;64015;49.392;15.582;2024-01-11T18:39:48;96407.13;;;-3.45;73.06
75438;BME280;64015;49.392;15.582;2024-01-11T18:42:30;96417.91;;;-3.42;73.42
75438;BME280;64015;49.392;15.582;2024-01-11T19:10:17;96414.47;;;-3.18;73.97
75438;BME280;64015;49.392;15.582;2024-01-11T19:12:46;96401.78;;;-3.35;75.13
75438;BME280;64015;49.392;15.582;2024-01-11T19:15:29;96392.59;;;-3.30;75.22
75438;BME280;64015;49.392;15.582;2024-01-11T19:18:23;96396.78;;;-3.29;74.61
75438;BME280;64015;49.392;15.582;2024-01-11T19:20:49;96383.22;;;-3.31;74.88
75438;BME280;64015;49.392;15.582;2024-01-11T19:23:45;96420.75;;;-3.12;74.91
75438;BME280;64015;49.392;15.582;2024-01-11T19:26:11;96401.13;;;-3.29;75.24
75438;BME280;64015;49.392;15.582;2024-01-11T19:28:40;96385.69;;;-3.46;76.49
75438;BME280;64015;49.392;15.582;2024-01-11T19:31:21;96408.88;;;-3.29;77.09
75438;BME280;64015;49.392;15.582;2024-01-11T19:36:57;96417.72;;;-3.32;77.62
75438;BME280;64015;49.392;15.582;2024-01-11T20:03:26;96426.19;;;-3.62;82.17
75438;BME280;64015;49.392;15.582;2024-01-11T20:06:17;96446.63;;;-3.53;82.57
75438;BME280;64015;49.392;15.582;2024-01-11T20:17:54;96459.66;;;-3.95;85.48
75438;BME280;64015;49.392;15.582;2024-01-11T20:29:51;96472.53;;;-4.11;89.15
75438;BME280;64015;49.392;15.582;2024-01-11T20:32:32;96469.81;;;-4.09;88.95
75438;BME280;64015;49.392;15.582;2024-01-11T20:34:58;96469.97;;;-4.03;88.89
75438;BME280;64015;49.392;15.582;2024-01-11T20:37:24;96455.16;;;-3.93;88.34
75438;BME280;64015;49.392;15.582;2024-01-11T20:39:50;96464.81;;;-3.70;87.12
75438;BME280;64015;49.392;15.582;2024-01-11T20:42:16;96456.94;;;-3.61;85.79
75438;BME280;64015;49.392;15.582;2024-01-11T20:44:43;96460.31;;;-3.44;84.79
75438;BME280;64015;49.392;15.582;2024-01-11T20:47:09;96449.66;;;-3.41;83.89
75438;BME280;64015;49.392;15.582;2024-01-11T20:49:38;96465.94;;;-3.32;84.10
75438;BME280;64015;49.392;15.582;2024-01-11T20:52:04;96459.66;;;-3.38;84.88
75438;BME280;64015;49.392;15.582;2024-01-11T20:54:30;96434.84;;;-3.47;84.05
75438;BME280;64015;49.392;15.582;2024-01-11T20:56:56;96441.94;;;-3.49;84.46
75438;BME280;64015;49.392;15.582;2024-01-11T20:59:23;96445.66;;;-3.44;84.18
75438;BME280;64015;49.392;15.582;2024-01-11T21:01:48;96468.38;;;-3.39;84.77
75438;BME280;64015;49.392;15.582;2024-01-11T21:04:14;96484.78;;;-3.32;84.94
75438;BME280;64015;49.392;15.582;2024-01-11T21:06:43;96487.06;;;-3.29;85.44
75438;BME280;64015;49.392;15.582;2024-01-11T21:09:09;96480.59;;;-3.33;85.28
75438;BME280;64015;49.392;15.582;2024-01-11T21:12:05;96474.81;;;-3.35;84.96
75438;BME280;64015;49.392;15.582;2024-01-11T21:14:32;96483.69;;;-3.38;85.02
75438;BME280;64015;49.392;15.582;2024-01-11T21:16:58;96501.56;;;-3.36;85.48
75438;BME280;64015;49.392;15.582;2024-01-11T21:19:24;96512.19;;;-3.31;85.03
75438;BME280;64015;49.392;15.582;2024-01-11T21:21:50;96534.94;;;-3.26;85.11
75438;BME280;64015;49.392;15.582;2024-01-11T21:26:52;96544.13;;;-3.24;85.59
75438;BME280;64015;49.392;15.582;2024-01-11T21:29:20;96526.41;;;-3.35;84.44
75438;BME280;64015;49.392;15.582;2024-01-11T21:34:37;96533.66;;;-3.47;84.71
75438;BME280;64015;49.392;15.582;2024-01-11T21:37:03;96549.28;;;-3.40;85.01
75438;BME280;64015;49.392;15.582;2024-01-11T21:39:29;96537.19;;;-3.48;84.52
75438;BME280;64015;49.392;15.582;2024-01-11T21:41:55;96530.28;;;-3.55;85.24
75438;BME280;64015;49.392;15.582;2024-01-11T21:44:21;96523.00;;;-3.60;85.21
75438;BME280;64015;49.392;15.582;2024-01-11T21:46:47;96514.59;;;-3.78;85.34
75438;BME280;64015;49.392;15.582;2024-01-11T21:49:13;96526.06;;;-3.81;84.95
75438;BME280;64015;49.392;15.582;2024-01-11T21:51:51;96520.56;;;-3.94;85.71
75438;BME280;64015;49.392;15.582;2024-01-11T21:54:17;96526.50;;;-4.01;86.12
75438;BME280;64015;49.392;15.582;2024-01-11T21:56:51;96524.97;;;-4.28;87.48
75438;BME280;64015;49.392;15.582;2024-01-11T21:59:17;96534.13;;;-4.34;87.15
75438;BME280;64015;49.392;15.582;2024-01-11T22:01:43;96538.75;;;-4.45;88.11
75438;BME280;64015;49.392;15.582;2024-01-11T22:07:52;96554.25;;;-4.63;89.47
75438;BME280;64015;49.392;15.582;2024-01-11T22:10:22;96531.69;;;-4.77;89.04
75438;BME280;64015;49.392;15.582;2024-01-11T22:13:11;96542.50;;;-4.74;89.27
75438;BME280;64015;49.392;15.582;2024-01-11T22:15:37;96548.94;;;-4.70;88.84
75438;BME280;64015;49.392;15.582;2024-01-11T22:18:05;96531.53;;;-4.76;89.37
75438;BME280;64015;49.392;15.582;2024-01-11T22:20:31;96521.25;;;-4.76;89.32
75438;BME280;64015;49.392;15.582;2024-01-11T22:25:53;96550.63;;;-4.86;90.31
75438;BME280;64015;49.392;15.582;2024-01-11T22:28:19;96544.75;;;-4.97;90.28
75438;BME280;64015;49.392;15.582;2024-01-11T22:30:45;96554.00;;;-4.86;90.71
75438;BME280;64015;49.392;15.582;2024-01-11T22:33:11;96561.44;;;-4.83;90.96
75438;BME280;64015;49.392;15.582;2024-01-11T22:38:20;96545.03;;;-4.82;90.13
75438;BME280;64015;49.392;15.582;2024-01-11T22:40:57;96539.56;;;-4.79;90.68
75438;BME280;64015;49.392;15.582;2024-01-11T22:50:59;96571.44;;;-4.46;90.51
75438;BME280;64015;49.392;15.582;2024-01-11T22:53:25;96553.16;;;-4.61;89.91
75438;BME280;64015;49.392;15.582;2024-01-11T22:55:51;96571.53;;;-4.56;90.48
75438;BME280;64015;49.392;15.582;2024-01-11T22:58:19;96585.16;;;-4.37;90.20
75438;BME280;64015;49.392;15.582;2024-01-11T23:00:45;96581.63;;;-4.36;90.23
75438;BME280;64015;49.392;15.582;2024-01-11T23:03:11;96585.31;;;-4.31;90.01
75438;BME280;64015;49.392;15.582;2024-01-11T23:05:36;96584.53;;;-4.31;90.29
75438;BME280;64015;49.392;15.582;2024-01-11T23:08:02;96588.72;;;-4.30;90.59
75438;BME280;64015;49.392;15.582;2024-01-11T23:10:28;96595.34;;;-4.28;90.12
75438;BME280;64015;49.392;15.582;2024-01-11T23:12:54;96581.94;;;-4.31;90.29
75438;BME280;64015;49.392;15.582;2024-01-11T23:15:20;96583.41;;;-4.29;89.75
75438;BME280;64015;49.392;15.582;2024-01-11T23:17:46;96589.38;;;-4.28;90.03
75438;BME280;64015;49.392;15.582;2024-01-11T23:20:12;96591.59;;;-4.33;90.29
75438;BME280;64015;49.392;15.582;2024-01-11T23:22:38;96594.63;;;-4.38;90.04
75438;BME280;64015;49.392;15.582;2024-01-11T23:25:04;96576.41;;;-4.44;90.24
75438;BME280;64015;49.392;15.582;2024-01-11T23:27:33;96599.63;;;-4.36;90.26
75438;BME280;64015;49.392;15.582;2024-01-11T23:29:59;96605.59;;;-4.36;90.65
75438;BME280;64015;49.392;15.582;2024-01-11T23:32:26;96590.88;;;-4.43;91.56
75438;BME280;64015;49.392;15.582;2024-01-11T23:34:52;96581.47;;;-4.61;91.65
75438;BME280;64015;49.392;15.582;2024-01-11T23:37:18;96607.97;;;-4.42;92.00
75438;BME280;64015;49.392;15.582;2024-01-11T23:39:43;96595.66;;;-4.57;92.71
75438;BME280;64015;49.392;15.582;2024-01-11T23:42:09;96602.09;;;-4.53;93.10
75438;BME280;64015;49.392;15.582;2024-01-11T23:44:40;96602.81;;;-4.42;92.88
75438;BME280;64015;49.392;15.582;2024-01-11T23:47:07;96606.34;;;-4.43;92.80
75438;BME280;64015;49.392;15.582;2024-01-11T23:49:33;96596.81;;;-4.51;93.72
75438;BME280;64015;49.392;15.582;2024-01-11T23:52:07;96579.72;;;-4.60;93.97
75438;BME280;64015;49.392;15.582;2024-01-11T23:54:45;96589.25;;;-4.53;94.64
75438;BME280;64015;49.392;15.582;2024-01-11T23:57:11;96590.19;;;-4.54;93.73
75438;BME280;64015;49.392;15.582;2024-01-11T23:59:36;96607.91;;;-4.51;94.39
